Southeast Texas Regional Airport
KBPT : now visible

Airfield :











YOU CAN JOIN US ON...

 
LOGIN :

Register | Disclaimer

   EN    FR    IT 

 









Legend :    VFR   Marginal VFR   IFR   Intensive IFR   Very Intensive IFR
Visi :
Ceiling :
>= 8 km
>= 3000ft
5 to 8 km
1000 to 3000 ft
1500m to 5 km
500 to 1000 ft
800 to 1500m
200 to 500 ft
< 800m
< 200 ft
Symbols :   Thunderstorms  Fog  Heavy snow  Heavy precipitations  Wind > 20 kt






- Airport Elevation : 15 ft
- IATA code : BPT


KBPT - Southeast Texas Regional

CURRENT METAR :
  • 021503Z 34010KT 6SM BR BKN008 OVC026 05/04 A3020 RMK AO2 CIG 004V012 T00500044

EXPIRED METARs :
  • 021453Z 34011KT 6SM BR SCT007 BKN010 OVC026 05/04 A3020 RMK AO2 RAE51 SLP226 P0005 60009 T00500044 53029
  • 021424Z 33009KT 4SM -RA BR FEW006 BKN013 OVC027 04/04 A3019 RMK AO2 P0004 T00440039
  • 021414Z 32009KT 2 1/2SM R12/6000VP6000FT RA BR BKN006 OVC014 04/04 A3019 RMK AO2 VIS 1 3/4V4 P0002 T00440039
  • 021408Z 32010KT 3SM -RA BR SCT006 OVC014 04/04 A3019 RMK AO2 P0002 T00440039
  • 021402Z 32010KT 2 1/2SM -RA BR BKN006 OVC012 04/04 A3019 RMK AO2 P0001 T00440039
  • 021353Z 31011KT 5SM -RA BR OVC004 04/04 A3018 RMK AO2 RAB13 SLP218 P0004 T00440039
  • 021253Z 03009KT 10SM OVC003 04/04 A3011 RMK AO2 SLP195 T00440039

TAF KBPT
Valid from the 02 at 12:00 until the 03 at 12:00 UTC


021120Z 0212/0312 01009KT 3SM BR VCSH OVC004
TEMPO 0212/0215 1SM SHRA BR OVC002
FM021500 36010KT 3SM SHRA BR OVC004
FM021800 35010KT 3SM SHRA VCTS OVC005CB
FM030000 35012G20KT P6SM OVC006
FM030600 35015G23KT P6SM OVC008
KZHU FIR / North America



MET'MAP, your aeronautical weather chart ! - Copyright ORBIFLY December 2007 - Disclaimer

ORBIFLY MET'MAP TEAM :

Programming & Development : Alexandra Zaïnal
Original concept : Baudouin d'Aumeries
Technical & hardware support : Manuel Goepfert
Assistance : Marc-Olivier Méhu




SOURCES & CREDITS :

   NOAA       Earth
Advisory